Terminal Aerodrome Forecast
Issued by NWS

Home | Current Version | Previous Version | Text Only | Print | Product List | Glossary On
Versions: 1 2 3 4 5 6 7 8 9 10 11 12 13 14 15
000
FTUS45 KRIW 231739
TAFRKS
TAF
KRKS 231739Z 2318/2418 22013KT 6SM -SHRA BKN025
     FM240000 36015G25KT 3SM -SNRA OVC014
     FM240400 34014KT P6SM VCSH SCT020 BKN040
     FM240800 28010KT P6SM SCT040 BKN060
     FM241600 26009KT P6SM FEW060 SCT200=

USA.gov is the U.S. government's official web portal to all federal, state and local government web resources and services.